createdAt,value
2018-09-14T00:00:17.540Z,68.16
2018-09-14T00:02:44.964Z,68.40
2018-09-14T00:05:12.580Z,68.20
2018-09-14T00:08:43.042Z,68.19
2018-09-14T00:11:10.726Z,68.38
2018-09-14T00:13:38.322Z,67.96
2018-09-14T00:16:05.798Z,68.19
2018-09-14T00:18:33.299Z,67.76
2018-09-14T00:21:00.771Z,68.15
2018-09-14T00:23:28.226Z,68.17
2018-09-14T00:25:55.942Z,68.46
2018-09-14T00:28:23.580Z,68.01
2018-09-14T00:30:51.100Z,68.35
2018-09-14T00:33:18.690Z,68.44
2018-09-14T00:35:46.217Z,67.82
2018-09-14T00:38:13.708Z,67.82
2018-09-14T00:40:41.324Z,68.07
2018-09-14T00:43:08.820Z,68.23
2018-09-14T00:45:36.297Z,67.96
2018-09-14T00:48:04.018Z,68.35
2018-09-14T00:50:31.476Z,67.85
2018-09-14T00:52:58.949Z,68.14
2018-09-14T00:55:26.633Z,68.35
2018-09-14T00:57:54.111Z,68.00
2018-09-14T01:00:21.719Z,68.34
2018-09-14T01:02:49.462Z,68.50
2018-09-14T01:05:16.934Z,68.14
2018-09-14T01:07:44.391Z,68.28
2018-09-14T01:10:12.144Z,68.49
2018-09-14T01:12:39.623Z,68.56
2018-09-14T01:15:38.200Z,68.55
2018-09-14T01:18:05.702Z,68.79
2018-09-14T01:20:33.205Z,68.45
2018-09-14T01:23:00.915Z,68.42
2018-09-14T01:25:28.428Z,68.45
2018-09-14T01:27:55.901Z,68.86
2018-09-14T01:30:23.473Z,68.48
2018-09-14T01:32:50.893Z,68.66
2018-09-14T01:35:23.893Z,68.40
2018-09-14T01:37:51.573Z,68.47
2018-09-14T01:40:19.037Z,68.64
2018-09-14T01:42:46.474Z,68.26
2018-09-14T01:45:14.085Z,69.06
2018-09-14T01:47:41.614Z,68.75
2018-09-14T01:50:09.080Z,68.79
2018-09-14T01:52:36.541Z,68.48
2018-09-14T01:55:04.517Z,68.42
2018-09-14T01:57:32.066Z,68.56
2018-09-14T01:59:59.696Z,68.69
2018-09-14T02:02:27.192Z,68.37
2018-09-14T02:04:55.159Z,68.46
2018-09-14T02:07:22.861Z,68.39
2018-09-14T02:09:50.303Z,68.80
2018-09-14T02:12:17.976Z,68.71
2018-09-14T02:14:45.880Z,68.60
2018-09-14T02:17:13.681Z,68.61
2018-09-14T02:19:41.242Z,68.61
2018-09-14T02:22:09.068Z,68.44
2018-09-14T02:24:36.502Z,68.39
2018-09-14T02:27:04.058Z,68.50
2018-09-14T02:30:02.276Z,68.98
2018-09-14T02:32:29.758Z,68.73
2018-09-14T02:34:57.240Z,69.36
2018-09-14T02:37:25.839Z,68.70
2018-09-14T02:39:53.432Z,69.15
2018-09-14T02:42:20.832Z,68.92
2018-09-14T02:44:48.459Z,69.16
2018-09-14T02:47:15.996Z,68.74
2018-09-14T02:49:43.412Z,69.22
2018-09-14T02:52:11.253Z,68.73
2018-09-14T02:54:38.842Z,69.11
2018-09-14T02:57:06.308Z,68.91
2018-09-14T02:59:33.884Z,68.89
2018-09-14T03:02:01.503Z,69.09
2018-09-14T03:04:28.999Z,68.81
2018-09-14T03:06:56.636Z,68.83
2018-09-14T03:09:24.165Z,69.13
2018-09-14T03:11:51.613Z,69.08
2018-09-14T03:14:19.259Z,69.26
2018-09-14T03:16:46.763Z,69.14
2018-09-14T03:19:14.538Z,69.09
2018-09-14T03:21:42.083Z,68.96
2018-09-14T03:24:09.512Z,69.23
2018-09-14T03:26:37.065Z,69.40
2018-09-14T03:29:04.782Z,69.49
2018-09-14T03:31:32.232Z,69.44
2018-09-14T03:33:59.764Z,69.51
2018-09-14T03:36:27.643Z,69.05
2018-09-14T03:38:55.081Z,69.39
2018-09-14T03:41:22.566Z,69.61
2018-09-14T03:43:50.206Z,69.33
2018-09-14T03:46:17.688Z,69.36
2018-09-14T03:48:45.125Z,69.38
2018-09-14T03:51:12.969Z,69.48
2018-09-14T03:53:40.444Z,69.56
2018-09-14T03:56:07.871Z,69.41
2018-09-14T03:58:35.514Z,69.52
2018-09-14T04:01:03.024Z,69.56
2018-09-14T04:03:30.484Z,69.65
2018-09-14T04:05:58.137Z,69.58
2018-09-14T04:08:25.681Z,69.64
2018-09-14T04:10:53.178Z,69.99
2018-09-14T04:13:20.925Z,69.61
2018-09-14T04:15:48.480Z,70.02
2018-09-14T04:18:15.906Z,70.08
2018-09-14T04:20:43.640Z,70.21
2018-09-14T04:23:11.099Z,69.79
2018-09-14T04:25:38.572Z,69.81
2018-09-14T04:28:06.171Z,70.35
2018-09-14T04:31:36.326Z,70.13
2018-09-14T04:34:04.092Z,70.06
2018-09-14T04:36:31.542Z,70.41
2018-09-14T04:38:59.005Z,70.21
2018-09-14T04:41:26.606Z,70.37
2018-09-14T04:43:54.315Z,70.49
2018-09-14T04:46:21.752Z,70.59
2018-09-14T04:48:49.416Z,70.56
2018-09-14T04:51:16.946Z,71.00
2018-09-14T04:53:44.417Z,70.68
2018-09-14T04:56:12.041Z,70.86
2018-09-14T04:58:39.519Z,70.80
2018-09-14T05:01:06.918Z,70.95
2018-09-14T05:03:34.643Z,70.82
2018-09-14T05:06:02.173Z,71.03
2018-09-14T05:08:29.674Z,71.16
2018-09-14T05:10:57.374Z,70.93
2018-09-14T05:13:24.878Z,71.48
2018-09-14T05:15:52.309Z,71.19
2018-09-14T05:18:20.160Z,71.10
2018-09-14T05:20:48.011Z,71.21
2018-09-14T05:23:15.502Z,71.03
2018-09-14T05:25:43.148Z,71.11
2018-09-14T05:28:10.595Z,70.91
2018-09-14T05:30:38.133Z,71.36
2018-09-14T05:33:05.929Z,71.60
2018-09-14T05:35:33.460Z,71.95
2018-09-14T05:38:00.881Z,71.67
2018-09-14T05:40:28.573Z,71.94
2018-09-14T05:42:56.147Z,72.26
2018-09-14T05:45:23.584Z,71.68
2018-09-14T05:47:51.118Z,72.51
2018-09-14T05:50:18.578Z,72.70
2018-09-14T05:52:46.030Z,72.12
2018-09-14T05:55:13.701Z,72.55
2018-09-14T05:57:41.145Z,72.32
2018-09-14T06:00:08.652Z,72.52
2018-09-14T06:02:36.480Z,72.60
2018-09-14T06:05:04.493Z,72.54
2018-09-14T06:07:32.005Z,72.56
2018-09-14T06:10:00.095Z,72.32
2018-09-14T06:12:27.511Z,72.68
2018-09-14T06:14:54.965Z,72.30
2018-09-14T06:17:22.634Z,72.22
2018-09-14T06:19:50.094Z,72.31
2018-09-14T06:22:17.809Z,72.50
2018-09-14T06:24:45.490Z,72.23
2018-09-14T06:27:13.004Z,72.57
2018-09-14T06:29:40.386Z,72.41
2018-09-14T06:32:07.947Z,72.13
2018-09-14T06:34:35.515Z,72.33
2018-09-14T06:37:03.019Z,72.25
2018-09-14T06:39:30.699Z,72.57
2018-09-14T06:41:58.205Z,72.35
2018-09-14T06:44:25.649Z,72.61
2018-09-14T06:46:53.291Z,72.52
2018-09-14T06:49:20.845Z,72.55
2018-09-14T06:51:48.332Z,72.15
2018-09-14T06:54:16.015Z,72.28
2018-09-14T06:56:43.559Z,71.64
2018-09-14T06:59:11.065Z,71.75
2018-09-14T07:01:38.885Z,71.75
2018-09-14T07:04:06.420Z,71.37
2018-09-14T07:06:33.950Z,71.49
2018-09-14T07:09:01.686Z,71.20
2018-09-14T07:11:29.152Z,70.79
2018-09-14T07:13:56.660Z,70.77
2018-09-14T07:16:24.238Z,70.62
2018-09-14T07:21:25.951Z,68.93
2018-09-14T07:23:53.646Z,68.14
2018-09-14T07:26:21.121Z,67.87
2018-09-14T07:28:48.759Z,67.12
2018-09-14T07:31:16.217Z,66.37
2018-09-14T07:33:43.916Z,66.35
2018-09-14T07:36:11.610Z,65.01
2018-09-14T07:38:39.127Z,65.43
2018-09-14T07:41:06.820Z,65.30
2018-09-14T07:43:34.491Z,65.24
2018-09-14T07:46:01.971Z,64.88
2018-09-14T07:48:29.478Z,64.40
2018-09-14T07:50:57.153Z,64.65
2018-09-14T07:53:24.659Z,64.56
2018-09-14T07:55:52.332Z,64.42
2018-09-14T07:58:20.136Z,63.63
2018-09-14T08:00:47.606Z,63.81
2018-09-14T08:03:15.179Z,62.99
2018-09-14T08:05:42.870Z,62.90
2018-09-14T08:08:10.472Z,62.94
2018-09-14T08:10:37.971Z,62.96
2018-09-14T08:13:05.801Z,63.09
2018-09-14T08:15:33.354Z,62.62
2018-09-14T08:18:00.905Z,62.79
2018-09-14T08:20:28.489Z,63.22
2018-09-14T08:22:55.927Z,62.55
2018-09-14T08:25:23.693Z,62.68
2018-09-14T08:27:51.290Z,62.56
2018-09-14T08:30:18.755Z,62.14
2018-09-14T08:32:46.474Z,62.21
2018-09-14T08:35:14.260Z,61.52
2018-09-14T08:37:41.887Z,61.95
2018-09-14T08:40:09.357Z,62.01
2018-09-14T08:42:37.225Z,61.50
2018-09-14T08:45:04.896Z,60.86
2018-09-14T08:47:32.462Z,61.33
2018-09-14T08:50:00.070Z,61.20
2018-09-14T08:52:27.571Z,60.56
2018-09-14T08:54:55.088Z,60.58
2018-09-14T08:57:22.806Z,60.38
2018-09-14T08:59:50.292Z,61.03
2018-09-14T09:02:17.763Z,60.34
2018-09-14T09:04:45.433Z,60.46
2018-09-14T09:07:12.947Z,60.71
2018-09-14T09:09:40.350Z,60.99
2018-09-14T09:12:08.109Z,60.43
2018-09-14T09:14:35.584Z,59.98
2018-09-14T09:17:03.049Z,59.68
2018-09-14T09:19:30.713Z,59.49
2018-09-14T09:21:58.270Z,59.68
2018-09-14T09:24:25.709Z,59.74
2018-09-14T09:26:53.526Z,59.41
2018-09-14T09:29:21.000Z,59.82
2018-09-14T09:31:48.436Z,59.82
2018-09-14T09:34:16.163Z,59.81
2018-09-14T09:36:43.670Z,59.50
2018-09-14T09:39:12.245Z,59.63
2018-09-14T09:41:40.543Z,59.34
2018-09-14T09:44:08.018Z,59.41
2018-09-14T09:46:35.684Z,59.01
2018-09-14T09:49:03.346Z,58.64
2018-09-14T09:51:30.825Z,59.00
2018-09-14T09:53:58.323Z,58.90
2018-09-14T09:56:26.113Z,59.29
2018-09-14T09:58:53.572Z,59.57
2018-09-14T10:01:26.625Z,59.30
2018-09-14T10:03:59.789Z,59.77
2018-09-14T10:06:27.389Z,59.95
2018-09-14T10:08:55.808Z,59.89
2018-09-14T10:11:23.461Z,59.76
2018-09-14T10:13:51.213Z,60.08
2018-09-14T10:16:18.713Z,59.94
2018-09-14T10:18:46.152Z,60.44
2018-09-14T10:21:13.793Z,60.27
2018-09-14T10:23:41.334Z,59.78
2018-09-14T10:26:08.799Z,59.96
2018-09-14T10:28:36.866Z,60.11
2018-09-14T10:31:04.356Z,60.04
2018-09-14T10:33:31.862Z,60.32
2018-09-14T10:35:59.384Z,60.76
2018-09-14T10:38:26.905Z,61.00
2018-09-14T10:40:54.386Z,61.00
2018-09-14T10:43:22.221Z,60.90
2018-09-14T10:45:49.709Z,61.13
2018-09-14T10:48:17.302Z,60.67
2018-09-14T10:50:44.952Z,61.09
2018-09-14T10:53:12.380Z,61.23
2018-09-14T10:55:39.897Z,61.41
2018-09-14T10:58:07.564Z,60.93
2018-09-14T11:00:35.100Z,61.17
2018-09-14T11:03:02.528Z,61.37
2018-09-14T11:05:30.253Z,61.33
2018-09-14T11:07:57.691Z,61.69
2018-09-14T11:10:25.369Z,61.55
2018-09-14T11:12:53.055Z,62.04
2018-09-14T11:15:20.565Z,61.92
2018-09-14T11:17:48.070Z,61.90
2018-09-14T11:20:15.765Z,62.35
2018-09-14T11:22:43.341Z,62.39
2018-09-14T11:25:11.008Z,62.06
2018-09-14T11:27:38.567Z,61.92
2018-09-14T11:30:06.864Z,62.29
2018-09-14T11:36:04.803Z,62.37
2018-09-14T11:38:32.487Z,61.69
2018-09-14T11:40:59.822Z,61.88
2018-09-14T11:43:27.323Z,61.51
2018-09-14T11:45:54.865Z,61.88
2018-09-14T11:48:22.314Z,61.46
2018-09-14T11:50:49.981Z,61.79
2018-09-14T11:53:17.428Z,61.34
2018-09-14T11:55:44.936Z,61.69
2018-09-14T11:58:12.525Z,61.89
2018-09-14T12:00:40.003Z,61.49
2018-09-14T12:03:07.443Z,61.39
2018-09-14T12:05:35.118Z,61.99
2018-09-14T12:08:02.578Z,61.24
2018-09-14T12:10:30.065Z,61.22
2018-09-14T12:12:57.747Z,61.29
2018-09-14T12:15:25.189Z,61.22
2018-09-14T12:17:52.636Z,61.81
2018-09-14T12:20:20.295Z,61.31
2018-09-14T12:22:47.717Z,61.21
2018-09-14T12:25:15.156Z,61.39
2018-09-14T12:27:42.871Z,61.60
2018-09-14T12:30:41.169Z,61.09
2018-09-14T12:33:08.914Z,61.05
2018-09-14T12:35:36.399Z,60.54
2018-09-14T12:38:03.872Z,60.79
2018-09-14T12:40:31.645Z,59.99
2018-09-14T12:42:59.081Z,60.03
2018-09-14T12:45:26.498Z,60.05
2018-09-14T12:47:54.216Z,59.71
2018-09-14T12:50:28.266Z,59.40
2018-09-14T12:52:55.952Z,59.16
2018-09-14T12:55:23.530Z,59.09
2018-09-14T12:57:50.936Z,58.61
2018-09-14T13:00:18.580Z,58.61
2018-09-14T13:02:46.058Z,59.05
2018-09-14T13:05:13.511Z,58.75
2018-09-14T13:07:41.149Z,58.93
2018-09-14T13:10:08.664Z,58.38
2018-09-14T13:12:36.101Z,57.65
2018-09-14T13:15:03.866Z,58.56
2018-09-14T13:17:31.301Z,58.47
2018-09-14T13:19:58.740Z,58.45
2018-09-14T13:22:26.424Z,58.00
2018-09-14T13:24:53.874Z,58.46
2018-09-14T13:27:21.473Z,58.20
2018-09-14T13:29:49.244Z,57.58
2018-09-14T13:32:17.026Z,57.50
2018-09-14T13:34:44.458Z,57.72
2018-09-14T13:37:12.143Z,57.76
2018-09-14T13:39:39.568Z,57.47
2018-09-14T13:42:07.190Z,57.64
2018-09-14T13:44:34.940Z,58.34
2018-09-14T13:47:02.472Z,58.50
2018-09-14T13:49:29.958Z,58.05
2018-09-14T13:51:57.551Z,58.17
2018-09-14T13:54:25.024Z,58.88
2018-09-14T13:56:52.528Z,58.47
2018-09-14T13:59:20.126Z,59.26
2018-09-14T14:01:47.606Z,58.97
2018-09-14T14:04:15.051Z,59.22
2018-09-14T14:06:42.720Z,59.52
2018-09-14T14:09:11.451Z,59.57
2018-09-14T14:11:38.941Z,59.78
2018-09-14T14:14:06.760Z,59.62
2018-09-14T14:16:34.224Z,59.68
2018-09-14T14:22:32.125Z,59.47
2018-09-14T14:24:59.621Z,59.84
2018-09-14T14:27:27.039Z,59.25
2018-09-14T14:29:54.791Z,59.13
2018-09-14T14:32:22.668Z,59.79
2018-09-14T14:34:50.193Z,59.56
2018-09-14T14:37:17.844Z,59.41
2018-09-14T14:39:45.424Z,59.16
2018-09-14T14:42:12.839Z,59.42
2018-09-14T14:44:40.460Z,59.62
2018-09-14T14:47:08.004Z,59.18
2018-09-14T14:49:35.495Z,59.28
2018-09-14T14:52:03.180Z,59.61
2018-09-14T14:54:30.602Z,59.52
2018-09-14T14:56:58.058Z,58.94
2018-09-14T14:59:25.688Z,59.00
2018-09-14T15:01:53.154Z,59.26
2018-09-14T15:04:20.607Z,59.61
2018-09-14T15:06:48.274Z,59.61
2018-09-14T15:09:15.753Z,60.23
2018-09-14T15:11:43.235Z,60.45
2018-09-14T15:14:11.004Z,60.35
2018-09-14T15:19:09.109Z,61.43
2018-09-14T15:21:36.779Z,60.70
2018-09-14T15:24:04.223Z,61.06
2018-09-14T15:26:31.683Z,61.67
2018-09-14T15:28:59.416Z,61.20
2018-09-14T15:31:26.876Z,61.66
2018-09-14T15:33:54.445Z,61.27
2018-09-14T15:36:22.029Z,61.84
2018-09-14T15:38:49.485Z,61.52
2018-09-14T15:41:17.018Z,61.72
2018-09-14T15:43:44.709Z,62.22
2018-09-14T15:46:12.141Z,62.20
2018-09-14T15:48:39.692Z,62.31
2018-09-14T15:51:07.328Z,62.17
2018-09-14T15:53:34.809Z,62.30
2018-09-14T15:56:02.277Z,62.45
2018-09-14T15:58:29.696Z,62.69
2018-09-14T16:00:57.137Z,62.22
2018-09-14T16:03:24.629Z,62.69
2018-09-14T16:05:52.316Z,63.00
2018-09-14T16:08:19.798Z,62.46
2018-09-14T16:10:47.279Z,62.87
2018-09-14T16:13:15.032Z,62.47
2018-09-14T16:15:42.778Z,62.51
2018-09-14T16:18:10.155Z,62.60
2018-09-14T16:20:37.844Z,62.76
2018-09-14T16:23:05.305Z,62.73
2018-09-14T16:25:32.863Z,62.73
2018-09-14T16:28:00.507Z,62.52
2018-09-14T16:30:27.938Z,62.86
2018-09-14T16:32:55.414Z,62.72
2018-09-14T16:35:23.134Z,63.23
2018-09-14T16:37:50.629Z,63.04
2018-09-14T16:40:18.111Z,63.27
2018-09-14T16:42:45.624Z,63.02
2018-09-14T16:45:13.089Z,63.43
2018-09-14T16:47:40.535Z,63.99
2018-09-14T16:50:08.104Z,63.90
2018-09-14T16:52:35.589Z,64.04
2018-09-14T16:55:03.046Z,64.34
2018-09-14T16:57:30.635Z,64.56
2018-09-14T16:59:58.104Z,64.25
2018-09-14T17:02:25.544Z,64.00
2018-09-14T17:04:53.063Z,64.47
2018-09-14T17:07:20.538Z,64.54
2018-09-14T17:09:48.020Z,65.01
2018-09-14T17:12:15.522Z,65.16
2018-09-14T17:14:42.990Z,65.17
2018-09-14T17:17:10.502Z,65.16
2018-09-14T17:19:38.063Z,65.35
2018-09-14T17:22:05.595Z,65.51
2018-09-14T17:24:33.022Z,65.21
2018-09-14T17:27:00.737Z,65.45
2018-09-14T17:29:28.224Z,65.80
2018-09-14T17:31:55.719Z,65.65
2018-09-14T17:34:23.463Z,65.73
2018-09-14T17:36:51.329Z,65.90
2018-09-14T17:39:18.820Z,66.04
2018-09-14T17:41:46.543Z,66.32
2018-09-14T17:44:14.077Z,66.31
2018-09-14T17:46:41.542Z,66.35
2018-09-14T17:49:09.224Z,66.57
2018-09-14T17:51:36.636Z,66.58
2018-09-14T17:54:04.121Z,66.27
2018-09-14T17:56:31.792Z,66.20
2018-09-14T17:58:59.316Z,66.52
2018-09-14T18:01:26.748Z,66.43
2018-09-14T18:03:54.374Z,66.87
2018-09-14T18:06:21.806Z,66.84
2018-09-14T18:08:49.498Z,66.63
2018-09-14T18:11:17.149Z,66.52
2018-09-14T18:13:44.844Z,66.86
2018-09-14T18:16:12.281Z,67.34
2018-09-14T18:18:39.956Z,67.15
2018-09-14T18:21:07.602Z,67.66
2018-09-14T18:23:35.087Z,67.78
2018-09-14T18:26:02.787Z,68.06
2018-09-14T18:28:30.229Z,68.15
2018-09-14T18:30:57.788Z,68.00
2018-09-14T18:33:25.368Z,67.91
2018-09-14T18:35:52.843Z,68.31
2018-09-14T18:38:20.516Z,68.14
2018-09-14T18:40:48.165Z,68.76
2018-09-14T18:43:15.567Z,68.64
2018-09-14T18:45:43.168Z,69.05
2018-09-14T18:48:10.880Z,68.60
2018-09-14T18:50:38.275Z,69.25
2018-09-14T18:53:05.955Z,69.04
2018-09-14T18:55:33.498Z,69.09
2018-09-14T18:58:01.033Z,69.33
2018-09-14T19:00:28.548Z,68.78
2018-09-14T19:02:56.342Z,68.73
2018-09-14T19:05:23.899Z,68.85
2018-09-14T19:07:51.359Z,68.80
2018-09-14T19:10:18.856Z,68.78
2018-09-14T19:12:46.332Z,68.72
2018-09-14T19:15:13.813Z,68.97
2018-09-14T19:17:41.364Z,68.66
2018-09-14T19:20:09.012Z,68.78
2018-09-14T19:22:36.430Z,68.63
2018-09-14T19:25:03.931Z,68.64
2018-09-14T19:27:31.383Z,69.01
2018-09-14T19:29:58.852Z,68.57
2018-09-14T19:32:26.290Z,68.52
2018-09-14T19:34:53.709Z,68.98
2018-09-14T19:37:21.190Z,69.15
2018-09-14T19:39:48.881Z,69.00
2018-09-14T19:42:16.334Z,68.71
2018-09-14T19:44:43.818Z,69.00
2018-09-14T19:47:11.269Z,68.62
2018-09-14T19:49:38.743Z,69.08
2018-09-14T19:52:06.136Z,69.25
2018-09-14T19:54:33.672Z,69.34
2018-09-14T19:57:01.161Z,69.43
2018-09-14T19:59:28.581Z,69.46
2018-09-14T20:01:56.347Z,68.94
2018-09-14T20:04:23.806Z,69.54
2018-09-14T20:06:51.305Z,69.32
2018-09-14T20:09:18.781Z,69.00
2018-09-14T20:11:46.330Z,69.17
2018-09-14T20:14:13.734Z,69.28
2018-09-14T20:16:41.251Z,69.43
2018-09-14T20:19:08.824Z,69.64
2018-09-14T20:21:36.302Z,69.14
2018-09-14T20:24:03.945Z,69.25
2018-09-14T20:26:31.477Z,69.34
2018-09-14T20:28:58.956Z,69.56
2018-09-14T20:31:26.493Z,69.57
2018-09-14T20:33:53.893Z,70.09
2018-09-14T20:36:21.416Z,69.85
2018-09-14T20:38:49.096Z,69.64
2018-09-14T20:41:16.717Z,70.00
2018-09-14T20:43:44.147Z,70.06
2018-09-14T20:46:11.696Z,69.85
2018-09-14T20:48:39.339Z,69.89
2018-09-14T20:51:06.794Z,69.90
2018-09-14T20:53:34.465Z,69.88
2018-09-14T20:56:01.880Z,70.35
2018-09-14T20:58:29.411Z,69.97
2018-09-14T21:00:57.056Z,70.45
2018-09-14T21:03:24.475Z,70.09
2018-09-14T21:05:51.967Z,70.14
2018-09-14T21:08:19.579Z,70.46
2018-09-14T21:10:47.081Z,70.31
2018-09-14T21:13:14.518Z,70.31
2018-09-14T21:15:42.132Z,69.93
2018-09-14T21:18:09.641Z,70.07
2018-09-14T21:20:37.146Z,70.48
2018-09-14T21:23:04.856Z,70.08
2018-09-14T21:25:32.253Z,70.22
2018-09-14T21:27:59.722Z,70.26
2018-09-14T21:30:27.458Z,70.37
2018-09-14T21:32:54.865Z,70.25
2018-09-14T21:35:22.360Z,69.87
2018-09-14T21:37:49.958Z,70.03
2018-09-14T21:40:17.474Z,70.05
2018-09-14T21:42:45.122Z,70.25
2018-09-14T21:45:12.780Z,69.92
2018-09-14T21:47:40.245Z,69.85
2018-09-14T21:50:07.711Z,69.75
2018-09-14T21:52:35.300Z,70.02
2018-09-14T21:55:02.874Z,69.85
2018-09-14T21:57:30.389Z,70.39
2018-09-14T21:59:57.995Z,69.78
2018-09-14T22:02:25.494Z,70.11
2018-09-14T22:04:52.998Z,69.97
2018-09-14T22:07:20.610Z,70.27
2018-09-14T22:09:48.050Z,69.95
2018-09-14T22:12:15.564Z,69.89
2018-09-14T22:14:43.298Z,69.94
2018-09-14T22:17:10.744Z,70.14
2018-09-14T22:19:38.245Z,69.88
2018-09-14T22:22:05.917Z,69.86
2018-09-14T22:24:33.316Z,69.68
2018-09-14T22:27:00.713Z,69.96
2018-09-14T22:29:28.350Z,70.00
2018-09-14T22:31:55.783Z,69.96
2018-09-14T22:34:23.220Z,69.60
2018-09-14T22:36:50.796Z,69.91
2018-09-14T22:39:18.376Z,69.92
2018-09-14T22:41:45.825Z,69.77
2018-09-14T22:44:13.700Z,70.31
2018-09-14T22:46:41.310Z,70.12
2018-09-14T22:49:08.731Z,69.88
2018-09-14T22:51:36.300Z,70.07
2018-09-14T22:54:03.831Z,70.22
2018-09-14T22:56:31.305Z,70.15
2018-09-14T22:58:59.081Z,69.85
2018-09-14T23:01:26.522Z,69.82
2018-09-14T23:03:53.926Z,69.95
2018-09-14T23:06:21.602Z,70.32
2018-09-14T23:08:49.010Z,70.02
2018-09-14T23:11:16.497Z,70.36
2018-09-14T23:13:44.176Z,70.42
2018-09-14T23:16:11.651Z,70.08
2018-09-14T23:18:39.111Z,70.05
2018-09-14T23:21:07.038Z,70.37
2018-09-14T23:23:34.446Z,70.36
2018-09-14T23:26:05.377Z,70.16
2018-09-14T23:28:33.092Z,69.97
2018-09-14T23:31:00.532Z,70.30
2018-09-14T23:33:28.006Z,69.95
2018-09-14T23:35:55.700Z,70.48
2018-09-14T23:38:23.120Z,70.11
2018-09-14T23:40:50.639Z,70.41
2018-09-14T23:43:18.261Z,70.48
2018-09-14T23:45:45.822Z,70.13
2018-09-14T23:48:13.268Z,70.15
2018-09-14T23:50:41.041Z,70.25
2018-09-14T23:53:08.476Z,70.17
2018-09-14T23:55:35.908Z,70.01
2018-09-14T23:58:03.628Z,70.00
